createdAt,value
2022-10-19T00:01:19.392Z,6.20
2022-10-19T00:06:33.973Z,5.30
2022-10-19T00:09:05.763Z,5.75
2022-10-19T00:11:32.798Z,6.35
2022-10-19T00:13:59.872Z,6.22
2022-10-19T00:16:40.021Z,8.07
2022-10-19T00:19:10.631Z,7.35
2022-10-19T00:21:42.576Z,6.65
2022-10-19T00:24:09.503Z,5.13
2022-10-19T00:26:37.910Z,5.95
2022-10-19T00:29:05.601Z,5.80
2022-10-19T00:31:38.903Z,5.82
2022-10-19T00:34:09.071Z,4.90
2022-10-19T00:36:38.799Z,5.18
2022-10-19T00:39:06.442Z,5.57
2022-10-19T00:41:35.139Z,4.68
2022-10-19T00:44:07.512Z,4.35
2022-10-19T00:46:38.661Z,4.72
2022-10-19T00:49:17.779Z,4.78
2022-10-19T00:51:46.602Z,4.32
2022-10-19T00:54:17.514Z,4.70
2022-10-19T00:56:45.930Z,4.38
2022-10-19T00:59:14.813Z,4.43
2022-10-19T01:01:42.651Z,4.45
2022-10-19T01:04:10.302Z,4.53
2022-10-19T01:06:37.239Z,4.03
2022-10-19T01:09:03.972Z,4.75
2022-10-19T01:11:45.883Z,5.05
2022-10-19T01:14:19.791Z,4.68
2022-10-19T01:16:52.382Z,4.72
2022-10-19T01:19:18.917Z,4.10
2022-10-19T01:21:48.303Z,4.95
2022-10-19T01:24:35.846Z,4.65
2022-10-19T01:27:11.062Z,4.85
2022-10-19T01:29:56.152Z,4.97
2022-10-19T01:32:22.681Z,4.95
2022-10-19T01:35:03.068Z,5.05
2022-10-19T01:37:40.587Z,4.55
2022-10-19T01:40:24.750Z,4.68
2022-10-19T01:45:24.532Z,5.63
2022-10-19T01:48:03.236Z,4.80
2022-10-19T01:50:49.013Z,5.35
2022-10-19T01:53:17.360Z,4.78
2022-10-19T01:55:45.094Z,5.28
2022-10-19T01:58:14.523Z,5.60
2022-10-19T02:00:42.578Z,4.72
2022-10-19T02:03:10.092Z,5.30
2022-10-19T02:05:37.404Z,5.45
2022-10-19T02:08:08.120Z,5.53
2022-10-19T02:10:37.329Z,5.50
2022-10-19T02:13:04.556Z,5.60
2022-10-19T02:15:34.466Z,4.78
2022-10-19T02:18:01.913Z,5.88
2022-10-19T02:20:28.641Z,4.75
2022-10-19T02:22:55.382Z,5.35
2022-10-19T02:25:22.430Z,5.25
2022-10-19T02:27:49.552Z,5.22
2022-10-19T02:30:17.065Z,4.80
2022-10-19T02:32:43.951Z,5.22
2022-10-19T02:35:11.943Z,5.32
2022-10-19T02:37:38.795Z,4.82
2022-10-19T02:40:05.829Z,5.93
2022-10-19T02:42:34.727Z,5.80
2022-10-19T02:45:19.999Z,5.10
2022-10-19T02:47:55.105Z,5.25
2022-10-19T02:50:22.064Z,4.85
2022-10-19T02:52:48.613Z,5.93
2022-10-19T02:55:15.327Z,4.70
2022-10-19T02:57:42.166Z,5.10
2022-10-19T03:00:09.358Z,5.80
2022-10-19T03:02:35.933Z,5.65
2022-10-19T03:05:03.079Z,5.30
2022-10-19T03:07:29.841Z,5.50
2022-10-19T03:09:56.571Z,5.40
2022-10-19T03:12:23.294Z,6.30
2022-10-19T03:14:49.895Z,5.93
2022-10-19T03:17:16.455Z,5.57
2022-10-19T03:19:43.085Z,5.50
2022-10-19T03:22:09.691Z,5.75
2022-10-19T03:24:36.274Z,6.22
2022-10-19T03:27:02.870Z,6.72
2022-10-19T03:29:32.448Z,6.13
2022-10-19T03:31:59.054Z,5.88
2022-10-19T03:34:25.670Z,6.50
2022-10-19T03:36:52.330Z,6.72
2022-10-19T03:39:19.012Z,6.22
2022-10-19T03:41:45.720Z,6.00
2022-10-19T03:44:12.374Z,5.80
2022-10-19T03:46:39.732Z,6.82
2022-10-19T03:49:06.615Z,7.10
2022-10-19T03:51:33.614Z,7.57
2022-10-19T03:54:07.174Z,7.25
2022-10-19T03:56:34.515Z,6.80
2022-10-19T03:59:01.704Z,6.50
2022-10-19T04:01:29.735Z,6.60
2022-10-19T04:03:57.530Z,6.68
2022-10-19T04:06:25.586Z,6.97
2022-10-19T04:08:52.617Z,7.30
2022-10-19T04:11:20.907Z,6.85
2022-10-19T04:13:51.252Z,7.30
2022-10-19T04:16:18.372Z,7.15
2022-10-19T04:18:45.017Z,7.57
2022-10-19T04:21:22.942Z,7.55
2022-10-19T04:23:49.921Z,7.60
2022-10-19T04:26:16.927Z,7.55
2022-10-19T04:28:43.569Z,8.15
2022-10-19T04:31:10.656Z,7.13
2022-10-19T04:33:37.258Z,7.07
2022-10-19T04:36:05.672Z,7.32
2022-10-19T04:38:32.751Z,6.55
2022-10-19T04:41:03.257Z,8.02
2022-10-19T04:43:30.098Z,6.85
2022-10-19T04:45:56.673Z,7.25
2022-10-19T04:48:23.233Z,7.35
2022-10-19T04:50:49.852Z,7.35
2022-10-19T04:53:19.982Z,7.28
2022-10-19T04:55:46.589Z,8.13
2022-10-19T04:58:13.155Z,7.68
2022-10-19T05:00:39.791Z,8.05
2022-10-19T05:03:06.406Z,7.90
2022-10-19T05:05:33.382Z,7.85
2022-10-19T05:08:00.310Z,8.73
2022-10-19T05:10:27.003Z,8.10
2022-10-19T05:12:53.900Z,9.18
2022-10-19T05:15:20.523Z,8.73
2022-10-19T05:17:47.085Z,9.65
2022-10-19T05:20:13.674Z,10.65
2022-10-19T05:22:40.272Z,9.10
2022-10-19T05:25:07.568Z,9.88
2022-10-19T05:27:34.533Z,10.35
2022-10-19T05:30:01.271Z,11.38
2022-10-19T05:32:28.385Z,12.80
2022-10-19T05:34:54.958Z,12.32
2022-10-19T05:37:21.981Z,12.32
2022-10-19T05:39:48.577Z,12.30
2022-10-19T05:42:15.165Z,11.10
2022-10-19T05:44:41.742Z,11.65
2022-10-19T05:47:08.333Z,12.60
2022-10-19T05:49:34.954Z,12.30
2022-10-19T05:52:01.530Z,12.65
2022-10-19T05:54:28.690Z,15.25
2022-10-19T05:56:55.670Z,11.70
2022-10-19T05:59:22.388Z,12.25
2022-10-19T06:01:49.105Z,12.48
2022-10-19T06:06:47.624Z,14.02
2022-10-19T06:09:14.243Z,13.57
2022-10-19T06:11:41.819Z,15.55
2022-10-19T06:14:11.054Z,14.65
2022-10-19T06:16:38.032Z,13.93
2022-10-19T06:19:04.848Z,14.80
2022-10-19T06:21:32.332Z,13.73
2022-10-19T06:24:00.140Z,15.25
2022-10-19T06:26:26.956Z,15.05
2022-10-19T06:28:59.246Z,14.77
2022-10-19T06:31:29.680Z,13.77
2022-10-19T06:33:56.459Z,14.55
2022-10-19T06:36:24.449Z,14.43
2022-10-19T06:38:51.478Z,15.30
2022-10-19T06:41:18.103Z,13.88
2022-10-19T06:43:48.600Z,13.90
2022-10-19T06:46:17.610Z,16.30
2022-10-19T06:48:44.218Z,14.93
2022-10-19T06:51:11.901Z,17.83
2022-10-19T06:53:38.522Z,17.90
2022-10-19T06:56:06.133Z,18.02
2022-10-19T06:58:36.695Z,17.73
2022-10-19T07:01:03.912Z,18.08
2022-10-19T07:03:30.860Z,17.45
2022-10-19T07:06:01.941Z,17.65
2022-10-19T07:08:29.943Z,17.33
2022-10-19T07:11:01.221Z,18.60
2022-10-19T07:13:28.483Z,16.85
2022-10-19T07:16:03.561Z,16.98
2022-10-19T07:18:30.228Z,17.25
2022-10-19T07:21:01.434Z,18.50
2022-10-19T07:23:29.180Z,18.50
2022-10-19T07:26:01.074Z,17.00
2022-10-19T07:28:28.331Z,17.13
2022-10-19T07:30:55.045Z,18.65
2022-10-19T07:33:21.693Z,16.40
2022-10-19T07:35:48.378Z,16.65
2022-10-19T07:38:14.949Z,18.20
2022-10-19T07:40:44.846Z,19.42
2022-10-19T07:43:13.930Z,17.73
2022-10-19T07:45:40.564Z,18.50
2022-10-19T07:48:07.242Z,18.90
2022-10-19T07:50:33.859Z,17.77
2022-10-19T07:53:00.522Z,17.83
2022-10-19T07:55:27.145Z,17.13
2022-10-19T07:57:53.784Z,16.55
2022-10-19T08:00:20.413Z,16.70
2022-10-19T08:02:59.638Z,16.40
2022-10-19T08:05:34.122Z,16.23
2022-10-19T08:08:00.695Z,16.25
2022-10-19T08:10:27.518Z,16.70
2022-10-19T08:12:54.118Z,16.02
2022-10-19T08:15:20.671Z,15.55
2022-10-19T08:17:47.349Z,15.27
2022-10-19T08:20:14.048Z,15.23
2022-10-19T08:22:41.872Z,13.50
2022-10-19T08:25:08.522Z,13.55
2022-10-19T08:30:02.811Z,11.38
2022-10-19T08:32:29.418Z,12.93
2022-10-19T08:34:55.999Z,12.32
2022-10-19T08:37:39.947Z,12.00
2022-10-19T08:40:21.217Z,11.88
2022-10-19T08:42:52.761Z,11.45
2022-10-19T08:45:22.499Z,10.50
2022-10-19T08:48:07.630Z,10.90
2022-10-19T08:50:38.400Z,11.18
2022-10-19T08:53:16.770Z,10.25
2022-10-19T08:55:43.389Z,10.52
2022-10-19T08:58:13.077Z,10.45
2022-10-19T09:00:58.627Z,10.48
2022-10-19T09:03:37.680Z,10.85
2022-10-19T09:06:21.523Z,9.80
2022-10-19T09:08:49.647Z,9.60
2022-10-19T09:11:20.733Z,10.45
2022-10-19T09:14:05.887Z,10.02
2022-10-19T09:16:34.845Z,10.95
2022-10-19T09:19:01.865Z,9.88
2022-10-19T09:21:51.740Z,10.23
2022-10-19T09:24:29.914Z,9.35
2022-10-19T09:26:58.053Z,9.90
2022-10-19T09:29:28.154Z,10.20
2022-10-19T09:31:59.792Z,9.70
2022-10-19T09:34:28.466Z,9.10
2022-10-19T09:36:57.444Z,9.65
2022-10-19T09:39:29.564Z,9.95
2022-10-19T09:42:04.819Z,9.43
2022-10-19T09:44:32.207Z,9.63
2022-10-19T09:47:14.202Z,10.20
2022-10-19T09:49:41.731Z,10.30
2022-10-19T09:52:27.429Z,10.00
2022-10-19T09:55:20.481Z,10.60
2022-10-19T09:57:51.251Z,10.30
2022-10-19T10:00:22.473Z,10.10
2022-10-19T10:02:50.449Z,10.32
2022-10-19T10:05:17.071Z,10.13
2022-10-19T10:07:44.410Z,10.23
2022-10-19T10:10:11.507Z,10.15
2022-10-19T10:12:41.091Z,9.27
2022-10-19T10:15:08.029Z,8.73
2022-10-19T10:17:36.834Z,9.50
2022-10-19T10:20:18.478Z,9.13
2022-10-19T10:22:52.428Z,9.10
2022-10-19T10:25:19.221Z,8.57
2022-10-19T10:27:54.749Z,8.68
2022-10-19T10:30:21.467Z,8.65
2022-10-19T10:32:52.466Z,8.35
2022-10-19T10:35:21.374Z,8.82
2022-10-19T10:37:48.319Z,8.02
2022-10-19T10:40:28.196Z,8.18
2022-10-19T10:42:56.455Z,8.07
2022-10-19T10:45:25.486Z,9.15
2022-10-19T10:47:52.952Z,8.23
2022-10-19T10:50:21.880Z,7.80
2022-10-19T10:52:57.362Z,8.25
2022-10-19T10:55:24.000Z,8.27
2022-10-19T10:57:52.859Z,8.52
2022-10-19T11:00:20.812Z,8.32
2022-10-19T11:03:00.954Z,8.32
2022-10-19T11:05:36.484Z,9.07
2022-10-19T11:08:06.203Z,8.23
2022-10-19T11:10:39.419Z,8.68
2022-10-19T11:13:06.049Z,7.97
2022-10-19T11:15:39.166Z,8.38
2022-10-19T11:18:11.861Z,8.27
2022-10-19T11:20:41.895Z,8.38
2022-10-19T11:23:15.875Z,7.78
2022-10-19T11:25:45.257Z,7.75
2022-10-19T11:28:32.980Z,8.05
2022-10-19T11:31:04.328Z,7.75
2022-10-19T11:33:38.352Z,7.85
2022-10-19T11:36:12.675Z,7.57
2022-10-19T11:38:57.850Z,6.82
2022-10-19T11:42:03.338Z,7.47
2022-10-19T11:44:43.853Z,7.93
2022-10-19T11:47:29.850Z,6.57
2022-10-19T11:50:15.492Z,6.10
2022-10-19T11:52:46.436Z,5.97
2022-10-19T11:55:19.232Z,6.60
2022-10-19T11:57:55.727Z,6.00
2022-10-19T12:03:34.727Z,6.57
2022-10-19T12:06:19.917Z,6.25
2022-10-19T12:08:51.248Z,5.80
2022-10-19T12:11:39.209Z,5.65
2022-10-19T12:14:10.209Z,6.25
2022-10-19T12:16:38.700Z,5.95
2022-10-19T12:19:06.108Z,5.97
2022-10-19T12:21:40.868Z,5.65
2022-10-19T12:24:13.142Z,5.72
2022-10-19T12:26:40.292Z,5.40
2022-10-19T12:29:12.174Z,6.07
2022-10-19T12:31:38.878Z,5.50
2022-10-19T12:34:08.530Z,4.70
2022-10-19T12:36:50.143Z,5.72
2022-10-19T12:39:34.884Z,5.22
2022-10-19T12:42:01.845Z,5.35
2022-10-19T12:44:31.493Z,5.40
2022-10-19T12:47:08.507Z,5.93
2022-10-19T12:49:50.283Z,5.38
2022-10-19T12:52:36.113Z,4.78
2022-10-19T12:55:19.539Z,5.40
2022-10-19T12:57:48.711Z,5.82
2022-10-19T13:00:20.087Z,6.13
2022-10-19T13:02:47.941Z,5.80
2022-10-19T13:05:25.041Z,5.72
2022-10-19T13:10:25.271Z,5.22
2022-10-19T13:12:52.780Z,5.65
2022-10-19T13:15:37.671Z,5.75
2022-10-19T13:18:14.386Z,5.50
2022-10-19T13:20:48.062Z,5.63
2022-10-19T13:23:14.614Z,5.28
2022-10-19T13:25:41.593Z,5.40
2022-10-19T13:28:11.187Z,5.22
2022-10-19T13:30:46.943Z,6.35
2022-10-19T13:33:25.572Z,5.80
2022-10-19T13:36:02.378Z,6.05
2022-10-19T13:38:32.173Z,6.43
2022-10-19T13:41:03.268Z,6.32
2022-10-19T13:43:32.086Z,6.38
2022-10-19T13:45:58.626Z,6.88
2022-10-19T13:48:30.011Z,6.97
2022-10-19T13:51:05.115Z,6.47
2022-10-19T13:53:31.744Z,7.32
2022-10-19T13:56:18.629Z,6.20
2022-10-19T13:58:51.292Z,5.97
2022-10-19T14:01:30.154Z,6.03
2022-10-19T14:03:56.994Z,6.35
2022-10-19T14:06:26.109Z,6.03
2022-10-19T14:09:13.819Z,5.90
2022-10-19T14:11:41.605Z,6.55
2022-10-19T14:14:11.236Z,6.40
2022-10-19T14:16:48.348Z,6.03
2022-10-19T14:19:26.698Z,5.82
2022-10-19T14:22:17.461Z,5.97
2022-10-19T14:24:44.068Z,6.38
2022-10-19T14:27:13.429Z,5.68
2022-10-19T14:29:45.112Z,6.10
2022-10-19T14:32:12.191Z,6.70
2022-10-19T14:34:42.663Z,6.05
2022-10-19T14:37:20.733Z,6.13
2022-10-19T14:40:01.053Z,5.20
2022-10-19T14:42:57.255Z,5.22
2022-10-19T14:45:28.137Z,5.88
2022-10-19T14:47:56.643Z,4.60
2022-10-19T14:50:25.893Z,5.32
2022-10-19T14:52:56.233Z,4.88
2022-10-19T14:55:23.397Z,5.45
2022-10-19T14:57:52.115Z,5.22
2022-10-19T15:00:21.131Z,5.05
2022-10-19T15:02:50.858Z,5.00
2022-10-19T15:05:21.939Z,5.85
2022-10-19T15:07:49.114Z,4.78
2022-10-19T15:10:21.401Z,5.20
2022-10-19T15:12:48.561Z,4.85
2022-10-19T15:15:18.301Z,5.07
2022-10-19T15:17:53.057Z,5.22
2022-10-19T15:21:11.316Z,4.75
2022-10-19T15:23:41.855Z,5.28
2022-10-19T15:26:17.638Z,4.45
2022-10-19T15:28:44.655Z,4.90
2022-10-19T15:31:21.566Z,4.32
2022-10-19T15:33:51.656Z,4.93
2022-10-19T15:36:19.929Z,4.03
2022-10-19T15:39:11.272Z,4.30
2022-10-19T15:41:45.770Z,3.58
2022-10-19T15:44:40.051Z,4.43
2022-10-19T15:47:06.598Z,4.20
2022-10-19T15:49:33.133Z,3.60
2022-10-19T15:51:59.738Z,3.60
2022-10-19T15:54:26.312Z,3.83
2022-10-19T15:56:53.171Z,3.60
2022-10-19T15:59:21.594Z,3.85
2022-10-19T16:01:55.044Z,4.35
2022-10-19T16:04:22.602Z,4.38
2022-10-19T16:06:49.366Z,4.40
2022-10-19T16:09:17.232Z,5.25
2022-10-19T16:11:43.963Z,5.82
2022-10-19T16:14:10.679Z,5.18
2022-10-19T16:16:37.451Z,3.63
2022-10-19T16:19:04.104Z,3.75
2022-10-19T16:21:32.173Z,5.50
2022-10-19T16:23:58.995Z,9.07
2022-10-19T16:26:26.237Z,13.50
2022-10-19T16:28:53.722Z,9.15
2022-10-19T16:31:23.275Z,6.88
2022-10-19T16:33:50.038Z,7.07
2022-10-19T16:36:20.203Z,7.50
2022-10-19T16:38:47.379Z,5.47
2022-10-19T16:41:14.321Z,8.23
2022-10-19T16:43:41.070Z,6.85
2022-10-19T16:46:07.980Z,4.93
2022-10-19T16:48:35.244Z,5.55
2022-10-19T16:51:16.157Z,4.53
2022-10-19T16:53:42.771Z,6.55
2022-10-19T16:56:10.743Z,7.43
2022-10-19T16:58:37.770Z,9.43
2022-10-19T17:01:08.174Z,14.32
2022-10-19T17:03:34.974Z,9.48
2022-10-19T17:06:05.108Z,7.10
2022-10-19T17:08:44.408Z,6.63
2022-10-19T17:11:23.460Z,5.35
2022-10-19T17:13:51.128Z,7.00
2022-10-19T17:16:18.412Z,19.45
2022-10-19T17:18:45.391Z,9.15
2022-10-19T17:21:13.234Z,10.18
2022-10-19T17:23:40.311Z,12.85
2022-10-19T17:26:07.593Z,9.35
2022-10-19T17:28:35.023Z,7.55
2022-10-19T17:31:06.089Z,8.90
2022-10-19T17:33:32.812Z,13.75
2022-10-19T17:36:06.678Z,14.57
2022-10-19T17:38:33.428Z,12.10
2022-10-19T17:41:07.417Z,7.97
2022-10-19T17:43:34.593Z,6.80
2022-10-19T17:46:02.896Z,6.15
2022-10-19T17:48:29.635Z,5.43
2022-10-19T17:50:59.935Z,4.30
2022-10-19T17:53:26.544Z,4.18
2022-10-19T17:55:53.244Z,96.72
2022-10-19T17:58:19.955Z,50.20
2022-10-19T18:00:46.577Z,33.85
2022-10-19T18:03:13.237Z,13.73
2022-10-19T18:05:39.877Z,7.63
2022-10-19T18:08:06.510Z,11.15
2022-10-19T18:10:34.863Z,10.73
2022-10-19T18:13:01.496Z,7.82
2022-10-19T18:15:28.183Z,7.25
2022-10-19T18:17:54.791Z,6.43
2022-10-19T18:20:21.463Z,7.07
2022-10-19T18:22:48.339Z,6.53
2022-10-19T18:25:18.800Z,6.53
2022-10-19T18:27:48.517Z,6.68
2022-10-19T18:30:15.252Z,6.93
2022-10-19T18:32:41.817Z,7.10
2022-10-19T18:35:10.316Z,6.40
2022-10-19T18:37:37.015Z,6.07
2022-10-19T18:40:03.779Z,5.72
2022-10-19T18:42:30.580Z,6.15
2022-10-19T18:44:57.296Z,5.20
2022-10-19T18:47:23.952Z,6.13
2022-10-19T18:49:50.583Z,6.00
2022-10-19T18:52:17.513Z,6.20
2022-10-19T18:54:44.529Z,7.10
2022-10-19T18:57:19.883Z,6.72
2022-10-19T18:59:49.923Z,6.88
2022-10-19T19:02:22.216Z,5.65
2022-10-19T19:04:49.179Z,6.03
2022-10-19T19:07:15.797Z,5.45
2022-10-19T19:09:42.818Z,6.32
2022-10-19T19:12:09.561Z,6.07
2022-10-19T19:14:37.898Z,6.50
2022-10-19T19:17:04.666Z,6.18
2022-10-19T19:19:31.337Z,5.80
2022-10-19T19:21:58.211Z,5.60
2022-10-19T19:24:29.615Z,6.78
2022-10-19T19:26:57.862Z,5.82
2022-10-19T19:29:25.084Z,6.57
2022-10-19T19:31:53.361Z,5.90
2022-10-19T19:34:19.997Z,5.80
2022-10-19T19:36:48.340Z,5.78
2022-10-19T19:39:16.379Z,6.50
2022-10-19T19:41:43.054Z,6.85
2022-10-19T19:44:09.690Z,6.63
2022-10-19T19:46:36.393Z,6.45
2022-10-19T19:49:04.734Z,6.93
2022-10-19T19:51:32.896Z,6.70
2022-10-19T19:53:59.894Z,6.60
2022-10-19T19:56:26.994Z,6.05
2022-10-19T19:58:54.713Z,7.00
2022-10-19T20:01:21.790Z,6.20
2022-10-19T20:03:48.849Z,5.95
2022-10-19T20:06:17.895Z,6.30
2022-10-19T20:08:46.384Z,6.03
2022-10-19T20:11:14.074Z,6.07
2022-10-19T20:13:40.712Z,6.65
2022-10-19T20:16:08.607Z,6.07
2022-10-19T20:18:35.486Z,5.75
2022-10-19T20:21:02.921Z,6.60
2022-10-19T20:23:29.714Z,6.50
2022-10-19T20:25:56.494Z,6.35
2022-10-19T20:28:23.784Z,7.30
2022-10-19T20:31:00.725Z,7.82
2022-10-19T20:33:28.536Z,7.45
2022-10-19T20:35:55.112Z,7.15
2022-10-19T20:38:21.735Z,6.80
2022-10-19T20:40:48.328Z,7.75
2022-10-19T20:43:15.331Z,6.90
2022-10-19T20:45:41.959Z,7.40
2022-10-19T20:48:08.531Z,6.95
2022-10-19T20:50:35.202Z,8.95
2022-10-19T20:53:01.906Z,17.73
2022-10-19T20:55:28.468Z,9.20
2022-10-19T20:57:55.058Z,9.05
2022-10-19T21:00:21.725Z,8.40
2022-10-19T21:02:48.377Z,8.55
2022-10-19T21:05:15.048Z,8.30
2022-10-19T21:07:41.639Z,8.55
2022-10-19T21:10:08.391Z,8.25
2022-10-19T21:12:35.264Z,8.77
2022-10-19T21:15:01.986Z,8.35
2022-10-19T21:17:28.618Z,7.55
2022-10-19T21:19:57.306Z,8.02
2022-10-19T21:22:24.101Z,7.90
2022-10-19T21:24:50.764Z,7.80
2022-10-19T21:27:17.357Z,7.65
2022-10-19T21:29:43.983Z,7.93
2022-10-19T21:32:10.546Z,8.13
2022-10-19T21:34:38.158Z,7.63
2022-10-19T21:37:04.809Z,8.20
2022-10-19T21:39:31.529Z,7.93
2022-10-19T21:41:58.268Z,7.18
2022-10-19T21:44:24.992Z,8.07
2022-10-19T21:46:51.740Z,7.88
2022-10-19T21:49:18.655Z,7.55
2022-10-19T21:51:47.044Z,8.05
2022-10-19T21:54:15.749Z,7.53
2022-10-19T21:56:42.648Z,8.43
2022-10-19T21:59:09.605Z,8.18
2022-10-19T22:01:40.121Z,8.50
2022-10-19T22:04:10.799Z,8.27
2022-10-19T22:06:37.497Z,7.57
2022-10-19T22:09:05.403Z,7.30
2022-10-19T22:11:32.034Z,7.57
2022-10-19T22:14:00.127Z,7.20
2022-10-19T22:16:27.486Z,7.85
2022-10-19T22:18:54.494Z,8.05
2022-10-19T22:21:23.027Z,7.65
2022-10-19T22:23:53.633Z,7.45
2022-10-19T22:26:25.308Z,7.15
2022-10-19T22:28:52.414Z,7.28
2022-10-19T22:31:18.975Z,7.28
2022-10-19T22:33:45.586Z,7.57
2022-10-19T22:36:12.946Z,7.65
2022-10-19T22:38:40.182Z,7.80
2022-10-19T22:41:31.432Z,7.47
2022-10-19T22:43:58.083Z,7.32
2022-10-19T22:46:24.693Z,8.57
2022-10-19T22:48:51.283Z,8.45
2022-10-19T22:51:17.878Z,8.23
2022-10-19T22:53:44.470Z,8.98
2022-10-19T22:56:11.511Z,8.77
2022-10-19T22:58:38.321Z,8.85
2022-10-19T23:01:08.403Z,8.95
2022-10-19T23:03:35.523Z,9.88
2022-10-19T23:06:02.110Z,9.93
2022-10-19T23:08:28.748Z,9.25
2022-10-19T23:10:55.394Z,8.32
2022-10-19T23:13:22.228Z,8.77
2022-10-19T23:15:50.471Z,8.60
2022-10-19T23:18:17.071Z,8.25
2022-10-19T23:20:43.791Z,8.20
2022-10-19T23:23:10.475Z,9.13
2022-10-19T23:25:37.165Z,8.70
2022-10-19T23:28:03.810Z,8.13
2022-10-19T23:30:30.437Z,8.25
2022-10-19T23:32:57.034Z,8.77
2022-10-19T23:35:23.623Z,7.85
2022-10-19T23:37:50.211Z,7.78
2022-10-19T23:40:16.850Z,8.23
2022-10-19T23:42:43.495Z,7.38
2022-10-19T23:45:10.365Z,7.88
2022-10-19T23:47:37.460Z,7.05
2022-10-19T23:50:04.505Z,7.30
2022-10-19T23:52:31.064Z,7.80
2022-10-19T23:54:57.642Z,8.05
2022-10-19T23:57:24.269Z,6.65
2022-10-19T23:59:50.810Z,8.98
